createdAt,value
2019-04-14T00:01:13.090Z,89.80
2019-04-14T00:03:43.365Z,89.80
2019-04-14T00:06:12.153Z,90.10
2019-04-14T00:08:41.589Z,90.20
2019-04-14T00:11:12.561Z,90.00
2019-04-14T00:13:43.515Z,90.30
2019-04-14T00:16:12.106Z,90.50
2019-04-14T00:18:40.675Z,90.30
2019-04-14T00:21:09.146Z,90.60
2019-04-14T00:23:37.604Z,90.20
2019-04-14T00:26:27.166Z,90.30
2019-04-14T00:28:57.761Z,90.20
2019-04-14T00:31:28.390Z,90.10
2019-04-14T00:33:59.083Z,90.30
2019-04-14T00:36:48.162Z,90.40
2019-04-14T00:39:18.406Z,90.30
2019-04-14T00:41:55.630Z,90.20
2019-04-14T00:44:41.179Z,90.40
2019-04-14T00:47:17.971Z,90.10
2019-04-14T00:49:48.740Z,90.40
2019-04-14T00:52:16.938Z,89.80
2019-04-14T00:54:45.712Z,90.20
2019-04-14T00:57:14.306Z,90.10
2019-04-14T00:59:44.004Z,89.60
2019-04-14T01:02:12.698Z,89.60
2019-04-14T01:04:41.204Z,89.10
2019-04-14T01:07:10.734Z,89.30
2019-04-14T01:09:39.323Z,88.60
2019-04-14T01:12:10.259Z,89.10
2019-04-14T01:14:38.808Z,88.60
2019-04-14T01:17:07.497Z,89.70
2019-04-14T01:19:35.992Z,88.90
2019-04-14T01:22:05.349Z,89.30
2019-04-14T01:24:33.997Z,89.10
2019-04-14T01:27:03.818Z,89.40
2019-04-14T01:29:32.552Z,89.90
2019-04-14T01:32:02.231Z,90.00
2019-04-14T01:34:32.327Z,90.10
2019-04-14T01:37:01.085Z,89.00
2019-04-14T01:39:30.681Z,88.70
2019-04-14T01:42:00.590Z,89.10
2019-04-14T01:44:29.244Z,88.40
2019-04-14T01:46:58.728Z,88.70
2019-04-14T01:49:29.031Z,88.50
2019-04-14T01:52:14.572Z,88.80
2019-04-14T01:54:51.535Z,89.10
2019-04-14T01:57:34.925Z,89.20
2019-04-14T02:00:25.518Z,89.40
2019-04-14T02:02:53.981Z,88.90
2019-04-14T02:05:23.452Z,88.20
2019-04-14T02:08:11.447Z,88.50
2019-04-14T02:10:41.174Z,88.90
2019-04-14T02:13:09.793Z,89.30
2019-04-14T02:15:39.474Z,89.10
2019-04-14T02:18:08.173Z,89.20
2019-04-14T02:20:36.689Z,90.00
2019-04-14T02:23:08.139Z,90.10
2019-04-14T02:25:38.110Z,90.30
2019-04-14T02:28:06.979Z,90.10
2019-04-14T02:30:44.341Z,90.30
2019-04-14T02:33:44.363Z,90.20
2019-04-14T02:36:05.688Z,90.00
2019-04-14T02:41:09.287Z,89.80
2019-04-14T02:43:39.812Z,88.90
2019-04-14T02:48:53.234Z,88.00
2019-04-14T02:51:06.246Z,88.50
2019-04-14T02:56:07.601Z,89.60
2019-04-14T03:01:07.182Z,88.30
2019-04-14T03:06:05.738Z,89.30
2019-04-14T03:11:09.726Z,88.70
2019-04-14T03:13:35.403Z,89.40
2019-04-14T03:18:46.573Z,87.70
2019-04-14T03:21:19.487Z,88.00
2019-04-14T03:24:06.052Z,87.10
2019-04-14T03:26:44.245Z,87.90
2019-04-14T03:29:16.592Z,87.90
2019-04-14T03:32:14.271Z,88.40
2019-04-14T03:39:15.577Z,89.90
2019-04-14T03:41:51.027Z,89.30
2019-04-14T03:44:19.009Z,89.60
2019-04-14T03:46:50.667Z,89.80
2019-04-14T03:49:20.893Z,89.70
2019-04-14T03:51:55.782Z,90.30
2019-04-14T03:54:09.142Z,90.30
2019-04-14T03:56:44.271Z,90.10
2019-04-14T03:59:12.829Z,90.10
2019-04-14T04:01:41.404Z,90.10
2019-04-14T04:04:09.976Z,90.10
2019-04-14T04:06:38.432Z,90.00
2019-04-14T04:09:08.319Z,90.10
2019-04-14T04:11:37.011Z,90.10
2019-04-14T04:14:05.596Z,90.10
2019-04-14T04:16:35.786Z,90.40
2019-04-14T04:19:10.318Z,90.40
2019-04-14T04:21:55.224Z,90.40
2019-04-14T04:24:35.117Z,90.10
2019-04-14T04:27:06.763Z,90.10
2019-04-14T04:29:37.621Z,89.20
2019-04-14T04:32:10.710Z,89.50
2019-04-14T04:34:46.821Z,89.40
2019-04-14T04:37:30.084Z,89.50
2019-04-14T04:40:03.094Z,89.80
2019-04-14T04:42:31.574Z,90.10
2019-04-14T04:45:00.033Z,89.90
2019-04-14T04:47:29.792Z,89.50
2019-04-14T04:49:58.300Z,89.60
2019-04-14T04:52:27.954Z,89.10
2019-04-14T04:54:56.683Z,89.60
2019-04-14T04:57:26.330Z,89.10
2019-04-14T04:59:56.061Z,89.30
2019-04-14T05:02:24.608Z,88.70
2019-04-14T05:04:53.055Z,89.10
2019-04-14T05:07:21.514Z,88.60
2019-04-14T05:10:08.877Z,88.70
2019-04-14T05:12:39.241Z,88.60
2019-04-14T05:15:27.019Z,88.80
2019-04-14T05:17:56.565Z,88.50
2019-04-14T05:20:25.012Z,88.60
2019-04-14T05:22:53.520Z,88.20
2019-04-14T05:25:23.217Z,88.80
2019-04-14T05:27:51.854Z,88.50
2019-04-14T05:30:20.417Z,88.60
2019-04-14T05:32:50.016Z,87.70
2019-04-14T05:35:18.772Z,87.50
2019-04-14T05:37:47.273Z,87.50
2019-04-14T05:40:16.771Z,87.30
2019-04-14T05:42:45.255Z,86.10
2019-04-14T05:45:13.768Z,85.70
2019-04-14T05:47:43.562Z,85.30
2019-04-14T05:50:12.256Z,84.60
2019-04-14T05:52:40.688Z,84.30
2019-04-14T05:55:09.576Z,84.10
2019-04-14T05:57:38.039Z,84.30
2019-04-14T06:00:08.785Z,83.80
2019-04-14T06:02:37.746Z,83.80
2019-04-14T06:05:09.158Z,83.90
2019-04-14T06:07:38.707Z,84.70
2019-04-14T06:10:07.773Z,84.50
2019-04-14T06:12:38.145Z,83.60
2019-04-14T06:15:07.794Z,83.60
2019-04-14T06:17:36.372Z,83.80
2019-04-14T06:20:05.489Z,83.30
2019-04-14T06:22:34.059Z,83.00
2019-04-14T06:25:02.664Z,82.80
2019-04-14T06:27:31.165Z,83.00
2019-04-14T06:30:01.277Z,84.10
2019-04-14T06:32:36.888Z,82.60
2019-04-14T06:35:10.666Z,82.40
2019-04-14T06:37:40.815Z,82.50
2019-04-14T06:40:10.633Z,82.80
2019-04-14T06:42:39.105Z,82.80
2019-04-14T06:45:08.434Z,82.90
2019-04-14T06:47:36.907Z,83.30
2019-04-14T06:50:07.018Z,83.10
2019-04-14T06:52:35.439Z,83.20
2019-04-14T06:55:04.382Z,81.00
2019-04-14T06:57:32.862Z,81.40
2019-04-14T07:00:01.386Z,82.40
2019-04-14T07:02:30.290Z,81.30
2019-04-14T07:04:58.824Z,81.70
2019-04-14T07:07:27.428Z,81.60
2019-04-14T07:09:55.925Z,81.40
2019-04-14T07:12:24.387Z,81.20
2019-04-14T07:14:52.862Z,80.90
2019-04-14T07:17:21.381Z,80.40
2019-04-14T07:20:01.396Z,80.10
2019-04-14T07:22:20.078Z,80.10
2019-04-14T07:24:48.648Z,79.80
2019-04-14T07:27:17.106Z,80.20
2019-04-14T07:29:47.221Z,79.70
2019-04-14T07:32:17.339Z,79.70
2019-04-14T07:34:50.404Z,78.80
2019-04-14T07:37:20.643Z,79.40
2019-04-14T07:39:50.754Z,79.50
2019-04-14T07:42:36.213Z,78.90
2019-04-14T07:45:12.479Z,78.90
2019-04-14T07:47:45.360Z,78.20
2019-04-14T07:50:18.476Z,79.00
2019-04-14T07:52:51.377Z,78.30
2019-04-14T07:55:40.006Z,79.30
2019-04-14T07:58:26.244Z,78.30
2019-04-14T08:00:56.444Z,78.30
2019-04-14T08:03:36.373Z,77.90
2019-04-14T08:06:07.491Z,77.80
2019-04-14T08:08:36.131Z,77.50
2019-04-14T08:11:06.152Z,77.40
2019-04-14T08:13:35.389Z,76.60
2019-04-14T08:16:03.861Z,76.40
2019-04-14T08:18:32.304Z,75.60
2019-04-14T08:21:00.831Z,74.00
2019-04-14T08:23:29.264Z,73.70
2019-04-14T08:25:57.722Z,73.30
2019-04-14T08:28:26.205Z,73.30
2019-04-14T08:30:54.744Z,73.20
2019-04-14T08:33:23.210Z,72.90
2019-04-14T08:35:52.399Z,72.40
2019-04-14T08:38:20.849Z,72.20
2019-04-14T08:40:49.357Z,72.20
2019-04-14T08:43:36.719Z,71.70
2019-04-14T08:46:06.871Z,70.80
2019-04-14T08:48:37.112Z,70.30
2019-04-14T08:51:22.183Z,70.10
2019-04-14T08:53:55.172Z,71.20
2019-04-14T08:56:31.334Z,70.60
2019-04-14T08:59:04.627Z,70.00
2019-04-14T09:01:37.993Z,71.40
2019-04-14T09:04:08.087Z,70.20
2019-04-14T09:06:38.364Z,68.70
2019-04-14T09:09:08.937Z,68.10
2019-04-14T09:11:42.132Z,67.50
2019-04-14T09:14:10.594Z,67.50
2019-04-14T09:16:39.167Z,67.50
2019-04-14T09:19:08.131Z,66.30
2019-04-14T09:21:37.402Z,64.50
2019-04-14T09:24:05.916Z,64.70
2019-04-14T09:26:35.287Z,66.30
2019-04-14T09:29:03.881Z,63.70
2019-04-14T09:31:32.380Z,63.90
2019-04-14T09:34:00.909Z,64.20
2019-04-14T09:36:29.349Z,62.70
2019-04-14T09:38:57.886Z,62.20
2019-04-14T09:41:26.325Z,60.30
2019-04-14T09:43:54.877Z,61.70
2019-04-14T09:46:23.495Z,59.70
2019-04-14T09:48:51.958Z,58.40
2019-04-14T09:51:20.405Z,59.50
2019-04-14T09:53:48.902Z,58.50
2019-04-14T09:56:17.417Z,57.40
2019-04-14T09:58:46.197Z,57.70
2019-04-14T10:01:14.747Z,57.30
2019-04-14T10:03:43.262Z,55.90
2019-04-14T10:06:11.775Z,56.30
2019-04-14T10:08:40.392Z,56.80
2019-04-14T10:11:08.985Z,55.20
2019-04-14T10:13:37.472Z,54.40
2019-04-14T10:16:05.936Z,55.50
2019-04-14T10:18:34.384Z,53.00
2019-04-14T10:21:02.950Z,53.30
2019-04-14T10:23:31.516Z,53.40
2019-04-14T10:26:00.040Z,52.60
2019-04-14T10:28:29.341Z,52.20
2019-04-14T10:30:57.906Z,52.40
2019-04-14T10:33:26.415Z,52.10
2019-04-14T10:36:14.299Z,51.10
2019-04-14T10:38:43.417Z,49.20
2019-04-14T10:41:11.967Z,47.70
2019-04-14T10:43:40.439Z,41.50
2019-04-14T10:46:08.937Z,40.80
2019-04-14T10:48:37.472Z,39.60
2019-04-14T10:51:05.958Z,38.10
2019-04-14T10:53:36.957Z,37.40
2019-04-14T10:56:05.512Z,36.10
2019-04-14T10:58:34.085Z,34.90
2019-04-14T11:01:03.575Z,34.10
2019-04-14T11:03:32.087Z,36.90
2019-04-14T11:06:11.159Z,37.70
2019-04-14T11:08:39.655Z,34.30
2019-04-14T11:11:08.240Z,33.40
2019-04-14T11:13:36.765Z,34.00
2019-04-14T11:16:05.450Z,33.80
2019-04-14T11:18:33.926Z,32.40
2019-04-14T11:21:02.436Z,31.40
2019-04-14T11:23:30.903Z,32.60
2019-04-14T11:25:59.338Z,31.40
2019-04-14T11:28:27.796Z,31.90
2019-04-14T11:30:56.508Z,30.60
2019-04-14T11:33:26.595Z,30.40
2019-04-14T11:35:56.926Z,30.40
2019-04-14T11:38:27.015Z,29.40
2019-04-14T11:40:57.204Z,29.70
2019-04-14T11:43:25.928Z,28.80
2019-04-14T11:46:03.142Z,31.10
2019-04-14T11:48:24.946Z,32.00
2019-04-14T11:50:54.030Z,30.10
2019-04-14T11:53:22.659Z,30.00
2019-04-14T11:55:52.328Z,30.90
2019-04-14T11:58:20.794Z,30.60
2019-04-14T12:01:07.155Z,31.40
2019-04-14T12:03:46.241Z,29.70
2019-04-14T12:06:28.324Z,29.70
2019-04-14T12:08:58.707Z,29.30
2019-04-14T12:11:27.232Z,30.70
2019-04-14T12:13:55.688Z,34.60
2019-04-14T12:16:24.331Z,32.60
2019-04-14T12:18:52.868Z,31.00
2019-04-14T12:21:21.381Z,28.20
2019-04-14T12:23:49.945Z,26.40
2019-04-14T12:26:18.519Z,27.30
2019-04-14T12:28:47.150Z,27.60
2019-04-14T12:31:17.332Z,25.10
2019-04-14T12:33:46.033Z,24.10
2019-04-14T12:36:14.568Z,25.30
2019-04-14T12:38:43.104Z,24.70
2019-04-14T12:41:13.649Z,25.60
2019-04-14T12:43:43.923Z,24.60
2019-04-14T12:46:14.073Z,26.90
2019-04-14T12:48:50.253Z,25.70
2019-04-14T12:51:23.023Z,26.40
2019-04-14T12:53:51.458Z,26.10
2019-04-14T12:56:21.563Z,25.80
2019-04-14T12:58:51.863Z,26.00
2019-04-14T13:01:22.089Z,25.70
2019-04-14T13:03:50.597Z,26.60
2019-04-14T13:06:19.174Z,27.40
2019-04-14T13:08:47.621Z,28.60
2019-04-14T13:11:16.285Z,27.70
2019-04-14T13:13:44.757Z,28.70
2019-04-14T13:16:13.229Z,27.80
2019-04-14T13:18:41.755Z,24.80
2019-04-14T13:21:10.492Z,28.50
2019-04-14T13:23:38.943Z,29.30
2019-04-14T13:26:07.564Z,29.20
2019-04-14T13:28:36.075Z,29.10
2019-04-14T13:31:04.744Z,26.80
2019-04-14T13:33:33.309Z,29.60
2019-04-14T13:36:01.897Z,27.40
2019-04-14T13:38:33.546Z,30.10
2019-04-14T13:41:02.020Z,31.80
2019-04-14T13:43:30.651Z,29.40
2019-04-14T13:45:59.963Z,32.40
2019-04-14T13:48:28.573Z,31.70
2019-04-14T13:50:57.105Z,32.60
2019-04-14T13:53:26.579Z,29.60
2019-04-14T13:55:55.137Z,31.10
2019-04-14T13:58:23.712Z,29.90
2019-04-14T14:00:53.885Z,31.00
2019-04-14T14:03:22.444Z,30.50
2019-04-14T14:05:51.016Z,30.90
2019-04-14T14:08:19.604Z,29.50
2019-04-14T14:10:48.197Z,28.60
2019-04-14T14:13:27.662Z,30.30
2019-04-14T14:16:12.860Z,30.00
2019-04-14T14:18:45.566Z,31.40
2019-04-14T14:21:31.555Z,29.40
2019-04-14T14:24:01.728Z,30.20
2019-04-14T14:26:31.858Z,31.90
2019-04-14T14:29:00.406Z,29.40
2019-04-14T14:31:28.953Z,30.00
2019-04-14T14:33:59.333Z,31.30
2019-04-14T14:36:27.604Z,35.10
2019-04-14T14:38:56.157Z,36.10
2019-04-14T14:41:24.777Z,37.20
2019-04-14T14:43:53.302Z,37.90
2019-04-14T14:46:23.434Z,36.90
2019-04-14T14:49:01.193Z,36.70
2019-04-14T14:51:31.305Z,37.20
2019-04-14T14:53:59.868Z,37.50
2019-04-14T14:56:31.084Z,38.40
2019-04-14T14:58:59.651Z,36.70
2019-04-14T15:01:28.229Z,35.10
2019-04-14T15:03:56.752Z,36.40
2019-04-14T15:06:27.423Z,36.80
2019-04-14T15:08:55.945Z,35.00
2019-04-14T15:11:24.603Z,34.20
2019-04-14T15:13:54.712Z,33.70
2019-04-14T15:16:23.431Z,33.80
2019-04-14T15:18:52.051Z,32.60
2019-04-14T15:21:20.724Z,34.10
2019-04-14T15:23:49.233Z,35.00
2019-04-14T15:26:17.823Z,36.70
2019-04-14T15:28:46.288Z,37.70
2019-04-14T15:31:26.914Z,38.00
2019-04-14T15:33:59.394Z,34.10
2019-04-14T15:36:35.587Z,32.40
2019-04-14T15:39:06.804Z,34.50
2019-04-14T15:41:35.508Z,38.60
2019-04-14T15:44:04.173Z,40.20
2019-04-14T15:46:32.669Z,40.30
2019-04-14T15:49:01.275Z,41.00
2019-04-14T15:51:29.875Z,39.50
2019-04-14T15:53:58.429Z,38.30
2019-04-14T15:56:40.812Z,36.30
2019-04-14T15:59:10.909Z,35.10
2019-04-14T16:01:44.119Z,36.00
2019-04-14T16:04:20.254Z,39.50
2019-04-14T16:06:56.208Z,39.80
2019-04-14T16:09:26.296Z,41.90
2019-04-14T16:12:02.012Z,42.60
2019-04-14T16:14:37.489Z,42.80
2019-04-14T16:17:10.263Z,41.70
2019-04-14T16:19:49.685Z,41.30
2019-04-14T16:22:18.173Z,41.10
2019-04-14T16:24:46.623Z,42.60
2019-04-14T16:27:22.516Z,42.40
2019-04-14T16:29:53.542Z,42.60
2019-04-14T16:32:23.732Z,43.30
2019-04-14T16:34:53.860Z,42.50
2019-04-14T16:37:22.369Z,43.20
2019-04-14T16:39:50.879Z,44.40
2019-04-14T16:42:19.337Z,43.80
2019-04-14T16:44:48.101Z,44.20
2019-04-14T16:47:16.612Z,44.10
2019-04-14T16:49:45.180Z,44.10
2019-04-14T16:52:15.929Z,43.00
2019-04-14T16:54:52.097Z,42.40
2019-04-14T16:57:25.208Z,42.30
2019-04-14T16:59:53.763Z,43.00
2019-04-14T17:02:22.754Z,43.40
2019-04-14T17:04:51.432Z,43.50
2019-04-14T17:07:19.963Z,44.10
2019-04-14T17:09:48.478Z,44.40
2019-04-14T17:12:17.061Z,45.00
2019-04-14T17:14:50.073Z,45.40
2019-04-14T17:17:20.238Z,46.10
2019-04-14T17:19:50.348Z,46.80
2019-04-14T17:22:29.493Z,47.10
2019-04-14T17:25:05.706Z,47.70
2019-04-14T17:27:51.746Z,48.10
2019-04-14T17:30:38.702Z,48.90
2019-04-14T17:33:08.862Z,48.00
2019-04-14T17:35:53.404Z,48.50
2019-04-14T17:38:41.306Z,48.80
2019-04-14T17:41:29.724Z,49.30
2019-04-14T17:44:05.453Z,49.50
2019-04-14T17:46:44.339Z,49.60
2019-04-14T17:49:17.179Z,50.50
2019-04-14T17:51:50.198Z,50.10
2019-04-14T17:54:29.249Z,50.60
2019-04-14T17:56:55.862Z,51.10
2019-04-14T18:02:10.203Z,50.80
2019-04-14T18:04:40.454Z,50.90
2019-04-14T18:07:13.787Z,50.80
2019-04-14T18:10:00.274Z,51.00
2019-04-14T18:12:30.474Z,51.10
2019-04-14T18:15:00.847Z,50.50
2019-04-14T18:17:33.791Z,50.80
2019-04-14T18:20:06.530Z,51.30
2019-04-14T18:22:35.093Z,51.20
2019-04-14T18:25:05.002Z,51.50
2019-04-14T18:27:38.275Z,51.50
2019-04-14T18:30:17.648Z,51.70
2019-04-14T18:32:47.736Z,52.20
2019-04-14T18:35:17.816Z,52.90
2019-04-14T18:37:53.431Z,52.80
2019-04-14T18:40:38.823Z,53.20
2019-04-14T18:43:25.011Z,53.30
2019-04-14T18:45:55.149Z,53.50
2019-04-14T18:48:37.137Z,53.30
2019-04-14T18:51:19.448Z,53.30
2019-04-14T18:53:55.573Z,53.50
2019-04-14T18:56:37.957Z,53.50
2019-04-14T18:59:18.068Z,54.50
2019-04-14T19:01:54.428Z,54.30
2019-04-14T19:04:22.977Z,54.00
2019-04-14T19:06:51.762Z,53.70
2019-04-14T19:09:20.693Z,53.90
2019-04-14T19:11:51.063Z,54.20
2019-04-14T19:14:27.064Z,54.40
2019-04-14T19:17:09.405Z,54.90
2019-04-14T19:19:42.745Z,54.60
2019-04-14T19:22:30.710Z,54.70
2019-04-14T19:25:08.022Z,55.10
2019-04-14T19:27:29.580Z,55.40
2019-04-14T19:29:59.728Z,55.50
2019-04-14T19:32:29.886Z,56.60
2019-04-14T19:34:58.415Z,55.90
2019-04-14T19:37:27.045Z,56.10
2019-04-14T19:39:55.681Z,56.30
2019-04-14T19:42:25.812Z,56.10
2019-04-14T19:44:56.924Z,56.50
2019-04-14T19:47:25.496Z,56.80
2019-04-14T19:49:54.039Z,57.20
2019-04-14T19:52:22.479Z,57.60
2019-04-14T19:54:50.957Z,57.00
2019-04-14T19:57:19.586Z,58.10
2019-04-14T19:59:48.203Z,57.90
2019-04-14T20:02:16.799Z,57.90
2019-04-14T20:04:45.367Z,58.40
2019-04-14T20:07:13.911Z,58.80
2019-04-14T20:09:42.535Z,58.80
2019-04-14T20:12:11.332Z,59.10
2019-04-14T20:14:39.913Z,59.60
2019-04-14T20:17:25.080Z,60.40
2019-04-14T20:19:58.133Z,60.60
2019-04-14T20:22:34.483Z,61.10
2019-04-14T20:25:14.003Z,61.60
2019-04-14T20:27:46.978Z,61.80
2019-04-14T20:30:22.754Z,62.10
2019-04-14T20:32:51.251Z,62.50
2019-04-14T20:35:19.799Z,63.20
2019-04-14T20:37:48.282Z,63.20
2019-04-14T20:40:16.925Z,63.40
2019-04-14T20:42:45.445Z,64.10
2019-04-14T20:45:14.120Z,64.50
2019-04-14T20:47:43.452Z,63.90
2019-04-14T20:50:21.734Z,65.40
2019-04-14T20:52:50.367Z,64.90
2019-04-14T20:55:25.492Z,65.40
2019-04-14T20:57:57.158Z,65.60
2019-04-14T21:00:26.308Z,65.80
2019-04-14T21:03:02.531Z,65.50
2019-04-14T21:05:32.623Z,66.30
2019-04-14T21:08:18.867Z,66.60
2019-04-14T21:10:51.852Z,66.90
2019-04-14T21:13:29.269Z,66.70
2019-04-14T21:16:11.902Z,67.00
2019-04-14T21:18:31.182Z,66.90
2019-04-14T21:21:02.622Z,67.00
2019-04-14T21:23:38.825Z,67.60
2019-04-14T21:26:11.741Z,68.00
2019-04-14T21:28:58.102Z,68.20
2019-04-14T21:31:31.085Z,68.20
2019-04-14T21:34:04.260Z,68.00
2019-04-14T21:36:46.247Z,67.90
2019-04-14T21:39:34.880Z,68.40
2019-04-14T21:42:05.201Z,69.20
2019-04-14T21:44:33.685Z,69.80
2019-04-14T21:47:02.466Z,70.00
2019-04-14T21:49:32.861Z,70.50
2019-04-14T21:52:03.020Z,70.50
2019-04-14T21:54:55.412Z,71.00
2019-04-14T21:57:22.890Z,71.80
2019-04-14T22:00:09.416Z,71.80
2019-04-14T22:02:55.972Z,72.50
2019-04-14T22:05:34.770Z,72.70
2019-04-14T22:08:10.726Z,72.70
2019-04-14T22:10:40.882Z,72.90
2019-04-14T22:13:09.560Z,72.90
2019-04-14T22:15:38.091Z,72.20
2019-04-14T22:18:07.127Z,72.40
2019-04-14T22:20:35.656Z,72.50
2019-04-14T22:23:05.969Z,72.50
2019-04-14T22:25:34.568Z,72.40
2019-04-14T22:28:03.185Z,72.10
2019-04-14T22:30:31.755Z,71.60
2019-04-14T22:33:00.264Z,71.70
2019-04-14T22:35:28.862Z,71.80
2019-04-14T22:37:57.305Z,71.90
2019-04-14T22:40:25.756Z,72.10
2019-04-14T22:42:54.264Z,71.90
2019-04-14T22:45:22.742Z,71.30
2019-04-14T22:47:53.005Z,72.30
2019-04-14T22:50:21.447Z,72.10
2019-04-14T22:52:49.952Z,71.80
2019-04-14T22:55:18.502Z,71.60
2019-04-14T22:57:48.037Z,71.40
2019-04-14T23:00:33.151Z,71.50
2019-04-14T23:03:18.070Z,71.40
2019-04-14T23:05:58.374Z,71.70
2019-04-14T23:08:37.083Z,71.70
2019-04-14T23:11:23.592Z,71.90
2019-04-14T23:14:06.083Z,71.70
2019-04-14T23:16:36.218Z,71.60
2019-04-14T23:19:07.140Z,71.80
2019-04-14T23:21:40.007Z,72.60
2019-04-14T23:24:13.230Z,72.00
2019-04-14T23:26:51.786Z,72.10
2019-04-14T23:29:12.122Z,72.50
2019-04-14T23:31:40.627Z,73.20
2019-04-14T23:34:10.008Z,72.50
2019-04-14T23:36:38.487Z,72.00
2019-04-14T23:39:08.963Z,72.10
2019-04-14T23:41:37.548Z,72.80
2019-04-14T23:44:06.053Z,72.50
2019-04-14T23:46:34.565Z,73.10
2019-04-14T23:49:02.978Z,72.70
2019-04-14T23:51:32.181Z,73.10
2019-04-14T23:54:00.612Z,72.50
2019-04-14T23:56:29.113Z,72.70
2019-04-14T23:58:57.631Z,73.20
